Teresa — WDG9717 — position and weather

sailwx.info

Track history (hours):
 
Tides and Currents Weather Stations Pressure Air Temp Water Temp Dewpoint Dewpoint Depression Visibility Wind Speed Wind Dir Waves Ship Positions

Teresa

Owner: Kirby Offshore Marine, LLC, Staten Island, NY. More information available from US FCC via Universal Licensing System and Coast Guard Vessel Documentation Center.

Last reported at 2018-Feb-21 21:44 UTC. Time now 2018-Feb-24 20:06 UTC.
Position N 25°25' W 080°01'.

Length 181 m.

Type: . MMSI: 368133000.

Date/timePositionNaut miles runAvg speedWind from/ knotsBaromVisibWave heightAir tempDewpointWater temp
2018-Feb-21 21:44N 25°25' W 080°01'2 7.6
2018-Feb-21 21:30N 25°27' W 080°01'4 7.7
2018-Feb-21 21:00N 25°31' W 080°01'4 7.9
2018-Feb-21 20:30N 25°35' W 080°01'4 8.0
2018-Feb-21 20:00N 25°39' W 080°01'4 8.2
2018-Feb-21 19:30N 25°43' W 080°01'4 8.9
2018-Feb-21 19:00N 25°47' W 080°02'510.2
2018-Feb-21 18:30N 25°52' W 080°02'5 9.6
2018-Feb-21 18:00N 25°57' W 080°03'510.4
2018-Feb-21 17:30N 26°02' W 080°03'511.0
2018-Feb-21 17:00N 26°08' W 080°03'611.2
2018-Feb-21 16:30N 26°13' W 080°02'611.3
2018-Feb-21 16:00N 26°19' W 080°02'611.3
2018-Feb-21 15:29N 26°25' W 080°01'510.4
2018-Feb-21 15:00N 26°30' W 080°01'5 9.9
2018-Feb-21 14:29N 26°35' W 080°01'11 7.2
2018-Feb-21 12:55N 26°46' W 080°03'0 0.0
2018-Feb-20 15:16N 26°46' W 080°03'0 0.0
2018-Feb-20 10:39N 26°46' W 080°03'0 2.4
2018-Feb-20 10:30N 26°46' W 080°03'2 3.8
2018-Feb-20 09:52N 26°47' W 080°00'1 2.4
2018-Feb-20 09:30N 26°48' W 079°59'19 9.1
2018-Feb-20 07:24N 26°29' W 080°01'4 9.8
2018-Feb-20 06:58N 26°24' W 080°01'4 9.5
2018-Feb-20 06:30N 26°20' W 080°01'5 9.6
2018-Feb-20 06:00N 26°15' W 080°01'5 9.5
2018-Feb-20 05:30N 26°10' W 080°02'510.3
2018-Feb-20 05:00N 26°05' W 080°02'5 9.8
2018-Feb-20 04:30N 26°00' W 080°02'5 9.7
2018-Feb-20 03:59N 25°55' W 080°01'510.1
2018-Feb-20 03:30N 25°51' W 080°01'510.5
2018-Feb-20 02:59N 25°45' W 080°01'511.1
2018-Feb-20 02:30N 25°40' W 080°01'611.6
2018-Feb-20 02:00N 25°34' W 080°01'612.1
2018-Feb-20 01:30N 25°28' W 080°01'198 5.4
2018-Feb-18 12:53N 27°36' W 082°50'512.4
2018-Feb-18 12:26N 27°36' W 082°44'1011.7
2018-Feb-18 11:38N 27°41' W 082°34'111.7
2018-Feb-18 11:30N 27°42' W 082°33'510.9
2018-Feb-18 11:00N 27°47' W 082°31'510.0
2018-Feb-18 10:30N 27°51' W 082°27'5 9.1
2018-Feb-18 10:00N 27°55' W 082°27'2 3.9
2018-Feb-18 09:30N 27°57' W 082°27'0 0.0
2018-Feb-18 08:59N 27°57' W 082°27'0 0.0
2018-Feb-18 08:29N 27°57' W 082°27'0 0.0
2018-Feb-18 07:59N 27°57' W 082°27'0 0.0
2018-Feb-18 07:29N 27°57' W 082°27'0 0.0
2018-Feb-18 06:58N 27°57' W 082°27'0 0.0
2018-Feb-18 06:28N 27°57' W 082°27'0 0.0
2018-Feb-18 05:56N 27°57' W 082°27'0 0.0
2018-Feb-18 05:29N 27°57' W 082°27'0 0.0
2018-Feb-18 04:56N 27°57' W 082°27'0 0.0
2018-Feb-18 04:29N 27°57' W 082°27'0 0.0
2018-Feb-18 03:59N 27°57' W 082°27'0 0.0
2018-Feb-18 03:29N 27°57' W 082°27'0 0.0
2018-Feb-18 02:59N 27°57' W 082°27'0 0.0
2018-Feb-18 02:29N 27°57' W 082°27'0 0.0
2018-Feb-18 01:58N 27°57' W 082°27'0 0.0
2018-Feb-18 01:29N 27°57' W 082°27'0 0.0
2018-Feb-18 00:58N 27°57' W 082°27'0 0.0
2018-Feb-18 00:29N 27°57' W 082°27'0 0.0
2018-Feb-17 23:59N 27°57' W 082°27'0 0.0
2018-Feb-17 23:28N 27°57' W 082°27'0 0.0
2018-Feb-17 22:58N 27°57' W 082°27'0 0.0
2018-Feb-17 22:28N 27°57' W 082°27'0 0.0
2018-Feb-17 21:58N 27°57' W 082°27'0 0.0
2018-Feb-17 21:29N 27°57' W 082°27'0 0.0
2018-Feb-17 20:58N 27°57' W 082°27'0 0.0
2018-Feb-17 20:28N 27°57' W 082°27'0 0.0
2018-Feb-17 19:58N 27°57' W 082°27'0 0.0
2018-Feb-17 19:28N 27°57' W 082°27'0 0.0
2018-Feb-17 18:59N 27°57' W 082°27'0 0.0
2018-Feb-17 18:28N 27°57' W 082°27'0 0.0
2018-Feb-17 17:58N 27°57' W 082°27'0 0.0
2018-Feb-17 17:28N 27°57' W 082°27'0 0.0
2018-Feb-17 16:58N 27°57' W 082°27'0 0.0
2018-Feb-17 16:28N 27°57' W 082°27'0 0.0
2018-Feb-17 15:59N 27°57' W 082°27'0 0.0
2018-Feb-17 15:28N 27°57' W 082°27'0 0.0
2018-Feb-17 14:58N 27°57' W 082°27'0 0.0
2018-Feb-17 14:31N 27°57' W 082°27'0 0.4
2018-Feb-17 13:58N 27°57' W 082°27'0 0.0
2018-Feb-17 13:28N 27°57' W 082°27'0 0.0
2018-Feb-17 12:58N 27°57' W 082°27'0 0.0
2018-Feb-17 12:22N 27°57' W 082°27'0 0.0
2018-Feb-17 11:58N 27°57' W 082°27'0 0.0
2018-Feb-17 11:28N 27°57' W 082°27'0 0.0
2018-Feb-17 10:58N 27°57' W 082°27'0 0.0
2018-Feb-17 10:28N 27°57' W 082°27'0 0.0
2018-Feb-17 09:58N 27°57' W 082°27'0 0.0
2018-Feb-17 09:28N 27°57' W 082°27'0 0.0
2018-Feb-17 08:58N 27°57' W 082°27'0 0.0
2018-Feb-17 08:28N 27°57' W 082°27'0 0.0
2018-Feb-17 07:58N 27°57' W 082°27'0 0.0
2018-Feb-17 07:28N 27°57' W 082°27'0 0.0
2018-Feb-17 06:55N 27°57' W 082°27'0 0.0
2018-Feb-17 06:28N 27°57' W 082°27'0 0.0
2018-Feb-17 05:58N 27°57' W 082°27'0 0.0
2018-Feb-17 05:28N 27°57' W 082°27'0 0.0
2018-Feb-17 04:58N 27°57' W 082°27'0 0.0
2018-Feb-17 04:28N 27°57' W 082°27'0 0.0
2018-Feb-17 03:58N 27°57' W 082°27'0 0.0
2018-Feb-17 03:28N 27°57' W 082°27'0 0.0
2018-Feb-17 02:58N 27°57' W 082°27'0 0.0
2018-Feb-17 02:28N 27°57' W 082°27'0 0.0
2018-Feb-17 01:55N 27°57' W 082°27'0 0.1
2018-Feb-17 01:28N 27°57' W 082°27'0 0.1
2018-Feb-17 00:58N 27°57' W 082°27'0 0.0
2018-Feb-17 00:28N 27°57' W 082°27'0 0.0
2018-Feb-16 23:58N 27°57' W 082°27'0 0.0
2018-Feb-16 23:28N 27°57' W 082°27'0 0.0
2018-Feb-16 22:58N 27°57' W 082°27'0 0.0
2018-Feb-16 22:28N 27°57' W 082°27'0 0.0
2018-Feb-16 21:59N 27°57' W 082°27'0 0.0
2018-Feb-16 21:30N 27°57' W 082°27'0 0.8
2018-Feb-16 21:00N 27°56' W 082°27'2 3.6
2018-Feb-16 20:30N 27°55' W 082°26'4 7.7
2018-Feb-16 20:00N 27°51' W 082°27'5 9.0
2018-Feb-16 19:30N 27°47' W 082°30'5 9.7
2018-Feb-16 19:00N 27°43' W 082°32'25 7.8
2018-Feb-16 15:49N 27°35' W 082°59'10 3.8
2018-Feb-16 13:14N 27°37' W 083°10'6 9.7
2018-Feb-16 12:35N 27°38' W 083°17'1 5.4
2018-Feb-16 12:21N 27°39' W 083°18'  
Track history (hours):
 
Tides and Currents Weather Stations Pressure Air Temp Water Temp Dewpoint Dewpoint Depression Visibility Wind Speed Wind Dir Waves Ship Positions

Teresa

Owner: Kirby Offshore Marine, LLC, Staten Island, NY. More information available from US FCC via Universal Licensing System and Coast Guard Vessel Documentation Center.

Last reported at 2018-Feb-21 21:44 UTC. Time now 2018-Feb-24 20:06 UTC.
Position N 25°25' W 080°01'.

Length 181 m.

Type: . MMSI: 368133000.

Date/timePositionNaut miles runAvg speedWind from/ knotsBaromVisibWave heightAir tempDewpointWater temp
2018-Feb-21 21:44N 25°25' W 080°01'2 7.6
2018-Feb-21 21:30N 25°27' W 080°01'4 7.7
2018-Feb-21 21:00N 25°31' W 080°01'4 7.9
2018-Feb-21 20:30N 25°35' W 080°01'4 8.0
2018-Feb-21 20:00N 25°39' W 080°01'4 8.2
2018-Feb-21 19:30N 25°43' W 080°01'4 8.9
2018-Feb-21 19:00N 25°47' W 080°02'510.2
2018-Feb-21 18:30N 25°52' W 080°02'5 9.6
2018-Feb-21 18:00N 25°57' W 080°03'510.4
2018-Feb-21 17:30N 26°02' W 080°03'511.0
2018-Feb-21 17:00N 26°08' W 080°03'611.2
2018-Feb-21 16:30N 26°13' W 080°02'611.3
2018-Feb-21 16:00N 26°19' W 080°02'611.3
2018-Feb-21 15:29N 26°25' W 080°01'510.4
2018-Feb-21 15:00N 26°30' W 080°01'5 9.9
2018-Feb-21 14:29N 26°35' W 080°01'11 7.2
2018-Feb-21 12:55N 26°46' W 080°03'0 0.0
2018-Feb-20 15:16N 26°46' W 080°03'0 0.0
2018-Feb-20 10:39N 26°46' W 080°03'0 2.4
2018-Feb-20 10:30N 26°46' W 080°03'2 3.8
2018-Feb-20 09:52N 26°47' W 080°00'1 2.4
2018-Feb-20 09:30N 26°48' W 079°59'19 9.1
2018-Feb-20 07:24N 26°29' W 080°01'4 9.8
2018-Feb-20 06:58N 26°24' W 080°01'4 9.5
2018-Feb-20 06:30N 26°20' W 080°01'5 9.6
2018-Feb-20 06:00N 26°15' W 080°01'5 9.5
2018-Feb-20 05:30N 26°10' W 080°02'510.3
2018-Feb-20 05:00N 26°05' W 080°02'5 9.8
2018-Feb-20 04:30N 26°00' W 080°02'5 9.7
2018-Feb-20 03:59N 25°55' W 080°01'510.1
2018-Feb-20 03:30N 25°51' W 080°01'510.5
2018-Feb-20 02:59N 25°45' W 080°01'511.1
2018-Feb-20 02:30N 25°40' W 080°01'611.6
2018-Feb-20 02:00N 25°34' W 080°01'612.1
2018-Feb-20 01:30N 25°28' W 080°01'198 5.4
2018-Feb-18 12:53N 27°36' W 082°50'512.4
2018-Feb-18 12:26N 27°36' W 082°44'1011.7
2018-Feb-18 11:38N 27°41' W 082°34'111.7
2018-Feb-18 11:30N 27°42' W 082°33'510.9
2018-Feb-18 11:00N 27°47' W 082°31'510.0
2018-Feb-18 10:30N 27°51' W 082°27'5 9.1
2018-Feb-18 10:00N 27°55' W 082°27'2 3.9
2018-Feb-18 09:30N 27°57' W 082°27'0 0.0
2018-Feb-18 08:59N 27°57' W 082°27'0 0.0
2018-Feb-18 08:29N 27°57' W 082°27'0 0.0
2018-Feb-18 07:59N 27°57' W 082°27'0 0.0
2018-Feb-18 07:29N 27°57' W 082°27'0 0.0
2018-Feb-18 06:58N 27°57' W 082°27'0 0.0
2018-Feb-18 06:28N 27°57' W 082°27'0 0.0
2018-Feb-18 05:56N 27°57' W 082°27'0 0.0
2018-Feb-18 05:29N 27°57' W 082°27'0 0.0
2018-Feb-18 04:56N 27°57' W 082°27'0 0.0
2018-Feb-18 04:29N 27°57' W 082°27'0 0.0
2018-Feb-18 03:59N 27°57' W 082°27'0 0.0
2018-Feb-18 03:29N 27°57' W 082°27'0 0.0
2018-Feb-18 02:59N 27°57' W 082°27'0 0.0
2018-Feb-18 02:29N 27°57' W 082°27'0 0.0
2018-Feb-18 01:58N 27°57' W 082°27'0 0.0
2018-Feb-18 01:29N 27°57' W 082°27'0 0.0
2018-Feb-18 00:58N 27°57' W 082°27'0 0.0
2018-Feb-18 00:29N 27°57' W 082°27'0 0.0
2018-Feb-17 23:59N 27°57' W 082°27'0 0.0
2018-Feb-17 23:28N 27°57' W 082°27'0 0.0
2018-Feb-17 22:58N 27°57' W 082°27'0 0.0
2018-Feb-17 22:28N 27°57' W 082°27'0 0.0
2018-Feb-17 21:58N 27°57' W 082°27'0 0.0
2018-Feb-17 21:29N 27°57' W 082°27'0 0.0
2018-Feb-17 20:58N 27°57' W 082°27'0 0.0
2018-Feb-17 20:28N 27°57' W 082°27'0 0.0
2018-Feb-17 19:58N 27°57' W 082°27'0 0.0
2018-Feb-17 19:28N 27°57' W 082°27'0 0.0
2018-Feb-17 18:59N 27°57' W 082°27'0 0.0
2018-Feb-17 18:28N 27°57' W 082°27'0 0.0
2018-Feb-17 17:58N 27°57' W 082°27'0 0.0
2018-Feb-17 17:28N 27°57' W 082°27'0 0.0
2018-Feb-17 16:58N 27°57' W 082°27'0 0.0
2018-Feb-17 16:28N 27°57' W 082°27'0 0.0
2018-Feb-17 15:59N 27°57' W 082°27'0 0.0
2018-Feb-17 15:28N 27°57' W 082°27'0 0.0
2018-Feb-17 14:58N 27°57' W 082°27'0 0.0
2018-Feb-17 14:31N 27°57' W 082°27'0 0.4
2018-Feb-17 13:58N 27°57' W 082°27'0 0.0
2018-Feb-17 13:28N 27°57' W 082°27'0 0.0
2018-Feb-17 12:58N 27°57' W 082°27'0 0.0
2018-Feb-17 12:22N 27°57' W 082°27'0 0.0
2018-Feb-17 11:58N 27°57' W 082°27'0 0.0
2018-Feb-17 11:28N 27°57' W 082°27'0 0.0
2018-Feb-17 10:58N 27°57' W 082°27'0 0.0
2018-Feb-17 10:28N 27°57' W 082°27'0 0.0
2018-Feb-17 09:58N 27°57' W 082°27'0 0.0
2018-Feb-17 09:28N 27°57' W 082°27'0 0.0
2018-Feb-17 08:58N 27°57' W 082°27'0 0.0
2018-Feb-17 08:28N 27°57' W 082°27'0 0.0
2018-Feb-17 07:58N 27°57' W 082°27'0 0.0
2018-Feb-17 07:28N 27°57' W 082°27'0 0.0
2018-Feb-17 06:55N 27°57' W 082°27'0 0.0
2018-Feb-17 06:28N 27°57' W 082°27'0 0.0
2018-Feb-17 05:58N 27°57' W 082°27'0 0.0
2018-Feb-17 05:28N 27°57' W 082°27'0 0.0
2018-Feb-17 04:58N 27°57' W 082°27'0 0.0
2018-Feb-17 04:28N 27°57' W 082°27'0 0.0
2018-Feb-17 03:58N 27°57' W 082°27'0 0.0
2018-Feb-17 03:28N 27°57' W 082°27'0 0.0
2018-Feb-17 02:58N 27°57' W 082°27'0 0.0
2018-Feb-17 02:28N 27°57' W 082°27'0 0.0
2018-Feb-17 01:55N 27°57' W 082°27'0 0.1
2018-Feb-17 01:28N 27°57' W 082°27'0 0.1
2018-Feb-17 00:58N 27°57' W 082°27'0 0.0
2018-Feb-17 00:28N 27°57' W 082°27'0 0.0
2018-Feb-16 23:58N 27°57' W 082°27'0 0.0
2018-Feb-16 23:28N 27°57' W 082°27'0 0.0
2018-Feb-16 22:58N 27°57' W 082°27'0 0.0
2018-Feb-16 22:28N 27°57' W 082°27'0 0.0
2018-Feb-16 21:59N 27°57' W 082°27'0 0.0
2018-Feb-16 21:30N 27°57' W 082°27'0 0.8
2018-Feb-16 21:00N 27°56' W 082°27'2 3.6
2018-Feb-16 20:30N 27°55' W 082°26'4 7.7
2018-Feb-16 20:00N 27°51' W 082°27'5 9.0
2018-Feb-16 19:30N 27°47' W 082°30'5 9.7
2018-Feb-16 19:00N 27°43' W 082°32'25 7.8
2018-Feb-16 15:49N 27°35' W 082°59'10 3.8
2018-Feb-16 13:14N 27°37' W 083°10'6 9.7
2018-Feb-16 12:35N 27°38' W 083°17'1 5.4
2018-Feb-16 12:21N 27°39' W 083°18'  

Dump ship's entire track history